全部
Satu Mare Int'l Airport (Satu Mare) SUJ 天气
|
Satu Mare (SUJ / LRSM)
晴天
微风 |
|
15 °C |
SUJ终端机场天气预报
| Date | Time (EEST) | Flight Rules | Wind Dir. | Speed | Type | Height AGL (ft) | Visibility | Remarks | ||||||
|---|---|---|---|---|---|---|---|---|---|---|---|---|---|---|
SUJ近期METAR历史数据
| Date | Time (EEST) | Flight Rules | Wind Dir. | Speed | Type | Height AGL (ft) | Visibility | Temp (°C) | Temp (°F) | Dew Point (°C) | Dew Point (°F) | Rel. Humid. | Pressure | Density Altitude | Remarks |
|---|---|---|---|---|---|---|---|---|---|---|---|---|---|---|---|
| 03-五月 | 21:00 | VFR | 250° | 5 kt | 10000 meters | 15° | 59° | 3° | 37° | 44% | 1018 mb | 272 ft | |||
| 03-五月 | 20:30 | VFR | 250° | 4 kt | 10000 meters | 17° | 62° | 3° | 37° | 39% | 1018 mb | 512 ft | |||
| 03-五月 | 20:00 | VFR | 260° | 5 kt | 10000 meters | 20° | 68° | 3° | 37° | 32% | 1018 mb | 872 ft | |||
| 03-五月 | 19:30 | VFR | 260° | 6 kt | 10000 meters | 21° | 69° | 2° | 35° | 28% | 1018 mb | 992 ft | |||
| 03-五月 | 19:00 | VFR | 260° | 5 kt | 10000 meters | 21° | 69° | 2° | 35° | 28% | 1018 mb | 992 ft | |||
| 03-五月 | 18:30 | VFR | 290° | 5 kt | 10000 meters | 22° | 71° | 2° | 35° | 27% | 1018 mb | 1,112 ft | |||
| 03-五月 | 18:00 | VFR | 280° | 5 kt | 10000 meters | 21° | 69° | 1° | 33° | 26% | 1018 mb | 992 ft | |||
| 03-五月 | 17:30 | VFR | 250° | 3 kt | 10000 meters | 21° | 69° | 1° | 33° | 26% | 1019 mb | 963 ft | |||
| 03-五月 | 17:00 | VFR | 330° | 5 kt | 10000 meters | 21° | 69° | 1° | 33° | 26% | 1019 mb | 963 ft | |||
| 03-五月 | 16:30 | VFR | Variable | 3 kt | 10000 meters | 21° | 69° | 2° | 35° | 28% | 1019 mb | 963 ft | |||
| 03-五月 | 16:00 | VFR | 260° | 5 kt | 10000 meters | 21° | 69° | 1° | 33° | 26% | 1020 mb | 933 ft | |||
| 03-五月 | 15:30 | VFR | 210° | 5 kt | 10000 meters | 20° | 68° | 1° | 33° | 28% | 1020 mb | 813 ft | |||
| 03-五月 | 15:00 | VFR | Variable | 3 kt | 10000 meters | 20° | 68° | 1° | 33° | 28% | 1020 mb | 813 ft | |||
| 03-五月 | 14:30 | VFR | 280° | 5 kt | 10000 meters | 19° | 66° | 1° | 33° | 30% | 1021 mb | 664 ft | |||
| 03-五月 | 14:00 | VFR | Variable | 4 kt | 10000 meters | 19° | 66° | 1° | 33° | 30% | 1021 mb | 664 ft | |||
| 03-五月 | 13:30 | VFR | 170° | 4 kt | 10000 meters | 18° | 64° | 1° | 33° | 32% | 1022 mb | 514 ft | |||
| 03-五月 | 13:00 | VFR | Variable | 2 kt | 10000 meters | 18° | 64° | 1° | 33° | 32% | 1022 mb | 514 ft | |||
| 03-五月 | 12:30 | VFR | Variable | 4 kt | 10000 meters | 17° | 62° | 1° | 33° | 34% | 1022 mb | 394 ft | |||
| 03-五月 | 12:00 | VFR | 240° | 5 kt | 10000 meters | 17° | 62° | 1° | 33° | 34% | 1023 mb | 365 ft | |||
| 03-五月 | 11:30 | VFR | Variable | 4 kt | 10000 meters | 17° | 62° | 0° | 32° | 32% | 1023 mb | 365 ft | |||
| 03-五月 | 11:00 | VFR | 180° | 4 kt | 10000 meters | 16° | 60° | 0° | 32° | 34% | 1023 mb | 245 ft | |||
| 03-五月 | 10:30 | VFR | 220° | 5 kt | 10000 meters | 15° | 59° | 0° | 32° | 36% | 1023 mb | 125 ft | |||
| 03-五月 | 10:00 | VFR | 160° | 5 kt | 10000 meters | 15° | 59° | 0° | 32° | 36% | 1023 mb | 125 ft | |||
| 03-五月 | 09:30 | VFR | 160° | 6 kt | 10000 meters | 15° | 59° | 0° | 32° | 36% | 1023 mb | 125 ft |
登录
| 您的浏览器不支持. 升级您的浏览器 |
